createdAt,value
2019-02-25T00:00:55.300Z,103010.86
2019-02-25T00:03:26.465Z,103007.34
2019-02-25T00:05:56.949Z,103010.08
2019-02-25T00:08:26.481Z,103015.31
2019-02-25T00:10:55.930Z,103008.23
2019-02-25T00:13:25.510Z,103009.69
2019-02-25T00:15:54.936Z,103004.36
2019-02-25T00:18:24.477Z,103016.86
2019-02-25T00:20:54.032Z,103013.31
2019-02-25T00:23:24.449Z,103021.95
2019-02-25T00:25:53.898Z,103023.69
2019-02-25T00:28:23.306Z,103021.95
2019-02-25T00:30:53.111Z,103016.33
2019-02-25T00:33:22.579Z,103012.67
2019-02-25T00:35:52.111Z,103009.02
2019-02-25T00:38:21.588Z,103016.66
2019-02-25T00:40:51.326Z,103012.63
2019-02-25T00:43:20.858Z,103015.63
2019-02-25T00:45:50.269Z,103010.39
2019-02-25T00:48:19.743Z,102997.45
2019-02-25T00:50:49.235Z,102991.35
2019-02-25T00:53:18.695Z,103003.95
2019-02-25T00:55:48.185Z,103008.49
2019-02-25T00:58:17.643Z,103008.12
2019-02-25T01:00:47.102Z,103010.52
2019-02-25T01:03:16.564Z,103005.28
2019-02-25T01:05:45.999Z,103001.23
2019-02-25T01:08:15.455Z,103005.95
2019-02-25T01:10:44.973Z,103009.77
2019-02-25T01:13:14.537Z,103012.27
2019-02-25T01:15:43.945Z,103007.69
2019-02-25T01:18:13.407Z,103002.87
2019-02-25T01:20:42.855Z,103007.08
2019-02-25T01:23:12.324Z,103001.84
2019-02-25T01:25:41.787Z,103001.20
2019-02-25T01:28:11.267Z,102996.88
2019-02-25T01:30:40.659Z,102987.33
2019-02-25T01:33:10.206Z,102993.34
2019-02-25T01:35:39.732Z,102991.27
2019-02-25T01:38:10.080Z,102984.11
2019-02-25T01:40:39.499Z,102987.50
2019-02-25T01:43:09.076Z,102978.12
2019-02-25T01:45:38.477Z,102975.77
2019-02-25T01:48:08.060Z,102971.34
2019-02-25T01:50:37.545Z,102975.13
2019-02-25T01:53:07.081Z,102971.89
2019-02-25T01:55:36.496Z,102974.90
2019-02-25T01:58:06.025Z,102980.02
2019-02-25T02:00:35.608Z,102968.63
2019-02-25T02:03:05.009Z,102965.51
2019-02-25T02:05:34.503Z,102971.25
2019-02-25T02:08:04.427Z,102974.02
2019-02-25T02:10:33.896Z,102978.22
2019-02-25T02:13:03.384Z,102985.97
2019-02-25T02:15:32.850Z,102977.19
2019-02-25T02:18:02.342Z,102978.00
2019-02-25T02:20:31.801Z,102987.32
2019-02-25T02:23:01.212Z,102989.83
2019-02-25T02:25:31.717Z,102994.14
2019-02-25T02:28:01.164Z,102990.09
2019-02-25T02:30:30.828Z,102976.63
2019-02-25T02:33:00.278Z,102986.17
2019-02-25T02:35:29.701Z,102982.63
2019-02-25T02:37:59.155Z,102978.59
2019-02-25T02:40:28.563Z,102986.98
2019-02-25T02:43:01.637Z,102978.09
2019-02-25T02:45:40.252Z,102981.52
2019-02-25T02:48:12.952Z,102974.22
2019-02-25T02:50:42.427Z,102971.88
2019-02-25T02:53:11.841Z,102977.80
2019-02-25T02:55:41.319Z,102972.41
2019-02-25T02:58:10.888Z,102978.19
2019-02-25T03:00:40.440Z,102980.27
2019-02-25T03:03:09.925Z,102983.57
2019-02-25T03:05:39.436Z,102985.03
2019-02-25T03:08:08.871Z,102977.57
2019-02-25T03:10:38.319Z,102976.65
2019-02-25T03:13:08.617Z,102980.07
2019-02-25T03:15:38.158Z,102980.11
2019-02-25T03:18:07.586Z,102979.61
2019-02-25T03:20:37.137Z,102986.07
2019-02-25T03:23:07.559Z,102987.27
2019-02-25T03:25:37.037Z,102985.60
2019-02-25T03:28:06.615Z,102979.48
2019-02-25T03:30:36.089Z,102977.64
2019-02-25T03:33:05.688Z,102971.91
2019-02-25T03:35:35.206Z,102967.86
2019-02-25T03:38:04.867Z,102964.98
2019-02-25T03:40:34.392Z,102966.59
2019-02-25T03:43:04.506Z,102971.02
2019-02-25T03:45:33.964Z,102966.59
2019-02-25T03:48:04.526Z,102967.36
2019-02-25T03:50:33.973Z,102979.81
2019-02-25T03:53:04.431Z,102971.42
2019-02-25T03:55:34.236Z,102979.81
2019-02-25T03:58:04.495Z,102970.66
2019-02-25T04:00:33.949Z,102972.59
2019-02-25T04:03:04.593Z,102972.86
2019-02-25T04:05:34.216Z,102977.70
2019-02-25T04:08:04.540Z,102969.97
2019-02-25T04:10:33.989Z,102969.05
2019-02-25T04:13:04.306Z,102970.86
2019-02-25T04:15:38.063Z,102974.28
2019-02-25T04:18:07.492Z,102971.66
2019-02-25T04:20:38.437Z,102971.28
2019-02-25T04:23:07.929Z,102977.05
2019-02-25T04:25:37.405Z,102970.39
2019-02-25T04:28:08.244Z,102969.77
2019-02-25T04:30:37.695Z,102964.12
2019-02-25T04:33:07.190Z,102971.96
2019-02-25T04:35:36.691Z,102974.19
2019-02-25T04:38:07.075Z,102983.22
2019-02-25T04:40:36.643Z,102984.80
2019-02-25T04:43:06.057Z,102979.56
2019-02-25T04:45:35.520Z,102972.91
2019-02-25T04:48:04.999Z,102970.92
2019-02-25T04:50:34.454Z,102970.41
2019-02-25T04:53:04.385Z,102976.56
2019-02-25T04:55:33.840Z,102973.03
2019-02-25T04:58:03.314Z,102968.99
2019-02-25T05:00:32.731Z,102962.84
2019-02-25T05:03:02.257Z,102966.11
2019-02-25T05:05:31.699Z,102964.53
2019-02-25T05:08:01.159Z,102965.45
2019-02-25T05:10:30.614Z,102965.19
2019-02-25T05:13:06.893Z,102961.00
2019-02-25T05:15:37.319Z,102956.96
2019-02-25T05:18:06.730Z,102962.58
2019-02-25T05:20:36.304Z,102969.61
2019-02-25T05:23:05.775Z,102970.03
2019-02-25T05:25:35.183Z,102971.22
2019-02-25T05:28:04.592Z,102965.07
2019-02-25T05:30:34.040Z,102965.99
2019-02-25T05:33:04.396Z,102965.99
2019-02-25T05:35:33.876Z,102979.95
2019-02-25T05:38:03.354Z,102976.45
2019-02-25T05:40:32.886Z,102983.48
2019-02-25T05:43:02.691Z,102988.33
2019-02-25T05:45:32.138Z,102991.33
2019-02-25T05:48:01.879Z,102986.22
2019-02-25T05:50:31.279Z,102984.14
2019-02-25T05:53:00.752Z,102996.80
2019-02-25T05:55:30.208Z,102994.98
2019-02-25T05:57:59.640Z,102994.06
2019-02-25T06:00:30.729Z,102995.49
2019-02-25T06:03:00.222Z,103006.06
2019-02-25T06:05:29.963Z,103006.06
2019-02-25T06:07:59.727Z,103004.91
2019-02-25T06:10:29.183Z,103004.91
2019-02-25T06:12:58.595Z,103019.02
2019-02-25T06:15:28.001Z,103011.05
2019-02-25T06:17:57.735Z,103016.43
2019-02-25T06:20:27.138Z,103021.92
2019-02-25T06:22:56.855Z,103014.25
2019-02-25T06:25:26.276Z,103016.20
2019-02-25T06:27:55.758Z,103017.14
2019-02-25T06:30:25.171Z,103018.45
2019-02-25T06:32:54.686Z,103019.49
2019-02-25T06:35:24.100Z,103016.20
2019-02-25T06:37:53.536Z,103015.94
2019-02-25T06:40:22.990Z,103017.52
2019-02-25T06:42:52.396Z,103018.29
2019-02-25T06:45:24.746Z,103014.75
2019-02-25T06:47:54.217Z,103015.29
2019-02-25T06:50:23.674Z,103019.33
2019-02-25T06:52:53.181Z,103019.57
2019-02-25T06:55:22.863Z,103017.61
2019-02-25T06:57:52.325Z,103016.97
2019-02-25T07:00:22.978Z,103012.36
2019-02-25T07:02:52.435Z,103017.84
2019-02-25T07:05:23.499Z,103023.13
2019-02-25T07:08:00.738Z,103025.72
2019-02-25T07:10:43.845Z,103023.85
2019-02-25T07:13:23.908Z,103027.32
2019-02-25T07:16:01.330Z,103020.33
2019-02-25T07:18:35.147Z,103020.39
2019-02-25T07:21:12.044Z,103027.09
2019-02-25T07:23:43.188Z,103033.70
2019-02-25T07:26:30.507Z,103034.37
2019-02-25T07:29:03.474Z,103037.43
2019-02-25T07:31:36.780Z,103042.55
2019-02-25T07:34:07.827Z,103032.72
2019-02-25T07:36:39.739Z,103036.52
2019-02-25T07:39:20.041Z,103040.45
2019-02-25T07:41:51.143Z,103038.34
2019-02-25T07:44:27.871Z,103045.12
2019-02-25T07:47:04.863Z,103052.73
2019-02-25T07:49:38.618Z,103062.27
2019-02-25T07:52:21.740Z,103061.88
2019-02-25T07:55:01.995Z,103063.69
2019-02-25T07:57:44.970Z,103060.63
2019-02-25T08:00:16.120Z,103073.02
2019-02-25T08:02:59.140Z,103069.78
2019-02-25T08:05:30.192Z,103067.70
2019-02-25T08:08:01.290Z,103068.98
2019-02-25T08:10:35.300Z,103073.18
2019-02-25T08:13:09.307Z,103073.92
2019-02-25T08:15:43.254Z,103079.39
2019-02-25T08:18:14.360Z,103077.83
2019-02-25T08:20:51.146Z,103075.60
2019-02-25T08:23:27.903Z,103079.48
2019-02-25T08:25:59.034Z,103079.89
2019-02-25T08:28:35.858Z,103083.14
2019-02-25T08:31:06.944Z,103084.40
2019-02-25T08:33:55.494Z,103080.48
2019-02-25T08:37:02.148Z,103071.36
2019-02-25T08:39:43.768Z,103076.94
2019-02-25T08:42:16.330Z,103080.59
2019-02-25T08:44:50.160Z,103083.19
2019-02-25T08:47:21.247Z,103078.83
2019-02-25T08:49:53.278Z,103078.02
2019-02-25T08:52:22.830Z,103087.64
2019-02-25T08:54:52.399Z,103089.16
2019-02-25T08:57:21.945Z,103098.45
2019-02-25T08:59:51.524Z,103092.32
2019-02-25T09:02:20.978Z,103090.05
2019-02-25T09:04:50.458Z,103088.69
2019-02-25T09:07:19.900Z,103091.27
2019-02-25T09:09:49.307Z,103095.39
2019-02-25T09:12:18.768Z,103090.28
2019-02-25T09:14:48.243Z,103095.11
2019-02-25T09:17:18.367Z,103090.56
2019-02-25T09:19:47.859Z,103082.88
2019-02-25T09:22:17.351Z,103090.20
2019-02-25T09:24:46.883Z,103091.11
2019-02-25T09:27:16.297Z,103090.38
2019-02-25T09:29:45.747Z,103098.84
2019-02-25T09:32:15.151Z,103097.00
2019-02-25T09:34:44.612Z,103092.72
2019-02-25T09:37:15.111Z,103100.92
2019-02-25T09:39:44.540Z,103102.91
2019-02-25T09:42:15.651Z,103099.73
2019-02-25T09:44:45.090Z,103096.05
2019-02-25T09:47:14.509Z,103095.30
2019-02-25T09:49:44.017Z,103090.02
2019-02-25T09:52:13.436Z,103099.66
2019-02-25T09:54:42.915Z,103092.58
2019-02-25T09:57:12.355Z,103084.37
2019-02-25T09:59:41.868Z,103082.62
2019-02-25T10:02:11.281Z,103079.05
2019-02-25T10:04:40.753Z,103067.09
2019-02-25T10:07:10.221Z,103080.55
2019-02-25T10:09:39.670Z,103077.30
2019-02-25T10:12:09.162Z,103070.34
2019-02-25T10:14:38.696Z,103072.60
2019-02-25T10:17:08.110Z,103076.97
2019-02-25T10:19:37.576Z,103082.20
2019-02-25T10:22:07.193Z,103087.89
2019-02-25T10:24:36.625Z,103085.96
2019-02-25T10:27:06.088Z,103076.92
2019-02-25T10:29:35.555Z,103079.95
2019-02-25T10:32:06.567Z,103073.97
2019-02-25T10:34:36.274Z,103074.75
2019-02-25T10:37:05.718Z,103066.28
2019-02-25T10:39:35.147Z,103060.91
2019-02-25T10:42:04.692Z,103058.55
2019-02-25T10:44:36.055Z,103057.66
2019-02-25T10:47:05.295Z,103053.53
2019-02-25T10:49:34.776Z,103050.82
2019-02-25T10:52:04.383Z,103044.31
2019-02-25T10:54:34.886Z,103034.97
2019-02-25T10:57:05.471Z,103025.30
2019-02-25T10:59:36.758Z,103027.38
2019-02-25T11:02:06.317Z,103025.58
2019-02-25T11:04:35.748Z,103030.72
2019-02-25T11:07:07.277Z,103022.81
2019-02-25T11:09:39.867Z,103009.30
2019-02-25T11:12:09.250Z,102995.95
2019-02-25T11:14:40.960Z,102992.30
2019-02-25T11:17:09.832Z,102984.26
2019-02-25T11:19:39.745Z,102978.73
2019-02-25T11:22:10.398Z,102969.77
2019-02-25T11:24:40.432Z,102969.31
2019-02-25T11:27:09.912Z,102963.86
2019-02-25T11:29:40.490Z,102956.64
2019-02-25T11:32:10.901Z,102952.98
2019-02-25T11:34:40.420Z,102951.08
2019-02-25T11:37:09.957Z,102948.11
2019-02-25T11:39:39.432Z,102948.63
2019-02-25T11:42:10.805Z,102955.53
2019-02-25T11:44:40.221Z,102957.88
2019-02-25T11:47:09.891Z,102956.19
2019-02-25T11:49:39.366Z,102945.50
2019-02-25T11:52:08.858Z,102935.83
2019-02-25T11:54:38.314Z,102929.95
2019-02-25T11:57:07.732Z,102922.02
2019-02-25T11:59:37.211Z,102919.37
2019-02-25T12:02:06.690Z,102926.98
2019-02-25T12:04:36.153Z,102927.95
2019-02-25T12:07:05.675Z,102934.84
2019-02-25T12:09:35.281Z,102928.76
2019-02-25T12:12:04.944Z,102936.52
2019-02-25T12:14:35.364Z,102923.73
2019-02-25T12:17:04.968Z,102918.45
2019-02-25T12:19:34.416Z,102919.05
2019-02-25T12:22:03.880Z,102911.26
2019-02-25T12:24:33.341Z,102914.57
2019-02-25T12:27:03.038Z,102898.38
2019-02-25T12:29:32.576Z,102904.45
2019-02-25T12:32:02.079Z,102896.69
2019-02-25T12:34:32.500Z,102893.78
2019-02-25T12:37:02.004Z,102888.64
2019-02-25T12:39:31.566Z,102884.46
2019-02-25T12:42:01.011Z,102883.02
2019-02-25T12:44:30.548Z,102877.04
2019-02-25T12:47:00.001Z,102870.19
2019-02-25T12:49:29.453Z,102869.48
2019-02-25T12:51:58.985Z,102877.85
2019-02-25T12:54:28.454Z,102878.52
2019-02-25T12:56:57.926Z,102873.61
2019-02-25T12:59:27.344Z,102870.98
2019-02-25T13:01:56.764Z,102868.28
2019-02-25T13:04:26.231Z,102867.32
2019-02-25T13:06:55.646Z,102865.41
2019-02-25T13:09:25.178Z,102870.19
2019-02-25T13:11:54.655Z,102871.44
2019-02-25T13:14:24.124Z,102864.28
2019-02-25T13:16:53.560Z,102865.16
2019-02-25T13:19:23.043Z,102862.03
2019-02-25T13:21:52.497Z,102861.66
2019-02-25T13:24:21.939Z,102862.57
2019-02-25T13:26:51.405Z,102866.11
2019-02-25T13:29:20.828Z,102867.52
2019-02-25T13:31:50.259Z,102871.19
2019-02-25T13:34:19.855Z,102865.74
2019-02-25T13:36:50.868Z,102866.61
2019-02-25T13:39:20.312Z,102859.66
2019-02-25T13:41:49.728Z,102858.41
2019-02-25T13:44:19.193Z,102860.70
2019-02-25T13:46:48.676Z,102871.36
2019-02-25T13:49:18.097Z,102864.70
2019-02-25T13:51:47.574Z,102870.53
2019-02-25T13:54:17.045Z,102861.66
2019-02-25T13:56:46.489Z,102863.48
2019-02-25T13:59:15.909Z,102864.41
2019-02-25T14:01:45.386Z,102859.53
2019-02-25T14:04:14.848Z,102855.91
2019-02-25T14:06:44.314Z,102847.50
2019-02-25T14:09:14.435Z,102841.76
2019-02-25T14:11:45.477Z,102843.59
2019-02-25T14:14:14.981Z,102837.84
2019-02-25T14:16:44.439Z,102835.59
2019-02-25T14:19:13.914Z,102829.30
2019-02-25T14:21:43.391Z,102830.17
2019-02-25T14:24:12.912Z,102823.59
2019-02-25T14:26:42.483Z,102822.69
2019-02-25T14:29:11.909Z,102819.98
2019-02-25T14:31:41.424Z,102814.94
2019-02-25T14:34:10.881Z,102817.11
2019-02-25T14:36:40.355Z,102818.44
2019-02-25T14:39:18.158Z,102822.89
2019-02-25T14:41:47.754Z,102814.82
2019-02-25T14:44:17.753Z,102803.58
2019-02-25T14:46:50.154Z,102797.71
2019-02-25T14:49:19.659Z,102799.08
2019-02-25T14:51:49.234Z,102796.80
2019-02-25T14:54:18.845Z,102801.17
2019-02-25T14:56:50.216Z,102800.17
2019-02-25T14:59:20.299Z,102798.38
2019-02-25T15:01:50.588Z,102801.50
2019-02-25T15:04:20.101Z,102787.77
2019-02-25T15:06:51.269Z,102785.06
2019-02-25T15:09:20.752Z,102784.10
2019-02-25T15:11:51.267Z,102789.81
2019-02-25T15:14:21.492Z,102791.09
2019-02-25T15:16:50.999Z,102778.11
2019-02-25T15:19:20.679Z,102777.91
2019-02-25T15:21:52.032Z,102774.24
2019-02-25T15:24:21.387Z,102771.12
2019-02-25T15:26:50.958Z,102770.58
2019-02-25T15:29:20.473Z,102775.45
2019-02-25T15:31:50.498Z,102772.28
2019-02-25T15:34:21.119Z,102772.28
2019-02-25T15:36:50.587Z,102775.33
2019-02-25T15:39:20.255Z,102776.94
2019-02-25T15:41:50.906Z,102773.32
2019-02-25T15:44:21.014Z,102771.41
2019-02-25T15:46:51.768Z,102766.28
2019-02-25T15:49:22.287Z,102766.20
2019-02-25T15:51:55.095Z,102769.60
2019-02-25T15:54:24.646Z,102771.72
2019-02-25T15:56:54.133Z,102768.10
2019-02-25T15:59:31.932Z,102766.59
2019-02-25T16:01:55.435Z,102764.20
2019-02-25T16:04:25.545Z,102769.36
2019-02-25T16:06:57.607Z,102776.34
2019-02-25T16:09:29.351Z,102780.59
2019-02-25T16:11:59.383Z,102782.67
2019-02-25T16:14:30.055Z,102790.92
2019-02-25T16:17:01.025Z,102786.20
2019-02-25T16:19:39.945Z,102783.30
2019-02-25T16:22:02.744Z,102783.49
2019-02-25T16:24:33.046Z,102780.14
2019-02-25T16:27:04.501Z,102783.33
2019-02-25T16:29:34.274Z,102783.33
2019-02-25T16:32:03.779Z,102780.13
2019-02-25T16:34:34.053Z,102787.53
2019-02-25T16:37:05.067Z,102780.15
2019-02-25T16:39:34.524Z,102790.98
2019-02-25T16:42:05.127Z,102794.82
2019-02-25T16:44:34.679Z,102788.30
2019-02-25T16:47:04.720Z,102791.95
2019-02-25T16:49:36.019Z,102795.53
2019-02-25T16:52:05.995Z,102787.70
2019-02-25T16:54:35.676Z,102797.11
2019-02-25T16:57:07.182Z,102792.35
2019-02-25T16:59:36.490Z,102787.95
2019-02-25T17:02:07.131Z,102782.42
2019-02-25T17:04:37.434Z,102780.05
2019-02-25T17:07:07.056Z,102774.03
2019-02-25T17:09:38.679Z,102781.84
2019-02-25T17:12:08.890Z,102782.54
2019-02-25T17:14:40.501Z,102784.23
2019-02-25T17:17:09.780Z,102784.90
2019-02-25T17:19:39.383Z,102786.67
2019-02-25T17:22:09.995Z,102790.52
2019-02-25T17:24:39.890Z,102786.88
2019-02-25T17:27:11.465Z,102779.71
2019-02-25T17:29:41.190Z,102779.29
2019-02-25T17:32:11.415Z,102779.27
2019-02-25T17:34:41.485Z,102777.62
2019-02-25T17:37:13.029Z,102781.97
2019-02-25T17:39:43.606Z,102788.49
2019-02-25T17:42:13.784Z,102793.69
2019-02-25T17:44:43.479Z,102800.91
2019-02-25T17:47:17.309Z,102802.84
2019-02-25T17:49:44.405Z,102794.62
2019-02-25T17:52:15.849Z,102805.30
2019-02-25T17:54:45.479Z,102804.95
2019-02-25T17:57:15.388Z,102801.51
2019-02-25T17:59:46.364Z,102805.59
2019-02-25T18:02:16.069Z,102804.47
2019-02-25T18:04:47.047Z,102808.95
2019-02-25T18:07:17.356Z,102811.20
2019-02-25T18:09:47.241Z,102808.59
2019-02-25T18:12:18.888Z,102806.69
2019-02-25T18:14:48.112Z,102813.30
2019-02-25T18:17:19.328Z,102813.95
2019-02-25T18:19:50.170Z,102814.73
2019-02-25T18:22:20.209Z,102812.34
2019-02-25T18:24:56.367Z,102814.98
2019-02-25T18:27:25.853Z,102811.61
2019-02-25T18:29:57.033Z,102815.57
2019-02-25T18:32:27.866Z,102819.42
2019-02-25T18:34:58.842Z,102813.59
2019-02-25T18:37:30.870Z,102813.92
2019-02-25T18:40:00.425Z,102803.09
2019-02-25T18:42:31.653Z,102804.92
2019-02-25T18:45:01.369Z,102803.12
2019-02-25T18:47:32.858Z,102796.18
2019-02-25T18:50:02.442Z,102794.89
2019-02-25T18:52:34.651Z,102789.67
2019-02-25T18:55:08.999Z,102787.53
2019-02-25T18:57:39.455Z,102795.14
2019-02-25T19:00:24.225Z,102797.12
2019-02-25T19:02:56.205Z,102797.44
2019-02-25T19:05:28.800Z,102799.01
2019-02-25T19:07:58.240Z,102796.22
2019-02-25T19:10:28.434Z,102795.94
2019-02-25T19:12:59.132Z,102798.75
2019-02-25T19:15:29.679Z,102796.44
2019-02-25T19:17:59.286Z,102802.03
2019-02-25T19:20:28.909Z,102793.37
2019-02-25T19:23:02.581Z,102794.02
2019-02-25T19:25:29.739Z,102783.06
2019-02-25T19:27:59.423Z,102789.06
2019-02-25T19:30:29.797Z,102786.39
2019-02-25T19:33:10.609Z,102788.63
2019-02-25T19:35:32.964Z,102786.35
2019-02-25T19:38:05.823Z,102785.11
2019-02-25T19:40:40.269Z,102784.83
2019-02-25T19:43:08.972Z,102784.03
2019-02-25T19:45:40.584Z,102785.50
2019-02-25T19:48:10.406Z,102777.94
2019-02-25T19:50:50.614Z,102777.94
2019-02-25T19:53:12.491Z,102783.20
2019-02-25T19:55:43.937Z,102781.72
2019-02-25T19:58:13.752Z,102786.99
2019-02-25T20:00:44.439Z,102780.55
2019-02-25T20:03:14.381Z,102786.97
2019-02-25T20:05:46.005Z,102780.93
2019-02-25T20:08:15.374Z,102778.41
2019-02-25T20:10:44.951Z,102773.20
2019-02-25T20:13:14.431Z,102775.14
2019-02-25T20:15:44.917Z,102775.89
2019-02-25T20:18:16.180Z,102771.25
2019-02-25T20:20:46.564Z,102770.25
2019-02-25T20:23:16.045Z,102779.06
2019-02-25T20:25:48.499Z,102778.15
2019-02-25T20:28:18.636Z,102776.75
2019-02-25T20:30:49.365Z,102780.18
2019-02-25T20:33:18.904Z,102790.72
2019-02-25T20:35:51.267Z,102792.34
2019-02-25T20:38:22.507Z,102798.84
2019-02-25T20:40:51.211Z,102807.17
2019-02-25T20:43:23.519Z,102805.34
2019-02-25T20:45:54.655Z,102806.17
2019-02-25T20:48:24.125Z,102815.30
2019-02-25T20:50:53.671Z,102819.13
2019-02-25T20:53:24.634Z,102822.07
2019-02-25T20:55:55.057Z,102821.41
2019-02-25T20:58:25.418Z,102827.30
2019-02-25T21:00:54.884Z,102834.50
2019-02-25T21:03:25.940Z,102833.63
2019-02-25T21:05:56.768Z,102836.30
2019-02-25T21:08:26.652Z,102841.65
2019-02-25T21:10:56.262Z,102831.47
2019-02-25T21:13:28.452Z,102826.33
2019-02-25T21:15:58.305Z,102820.19
2019-02-25T21:18:28.898Z,102817.25
2019-02-25T21:20:59.170Z,102809.48
2019-02-25T21:23:28.659Z,102809.59
2019-02-25T21:26:00.228Z,102798.67
2019-02-25T21:28:31.366Z,102802.84
2019-02-25T21:31:00.411Z,102800.42
2019-02-25T21:33:30.405Z,102790.94
2019-02-25T21:36:01.119Z,102779.80
2019-02-25T21:38:30.601Z,102768.58
2019-02-25T21:41:00.173Z,102771.02
2019-02-25T21:43:29.674Z,102768.70
2019-02-25T21:46:01.456Z,102766.68
2019-02-25T21:48:32.310Z,102770.92
2019-02-25T21:51:02.928Z,102767.19
2019-02-25T21:53:32.691Z,102773.67
2019-02-25T21:56:04.737Z,102765.70
2019-02-25T21:58:33.277Z,102762.45
2019-02-25T22:01:02.860Z,102763.09
2019-02-25T22:03:36.942Z,102757.12
2019-02-25T22:06:04.908Z,102759.13
2019-02-25T22:08:36.064Z,102756.02
2019-02-25T22:11:12.383Z,102747.52
2019-02-25T22:13:36.959Z,102752.68
2019-02-25T22:16:08.033Z,102749.44
2019-02-25T22:18:37.504Z,102748.85
2019-02-25T22:21:09.197Z,102748.85
2019-02-25T22:23:38.129Z,102745.21
2019-02-25T22:26:07.555Z,102741.48
2019-02-25T22:28:38.878Z,102740.07
2019-02-25T22:31:10.633Z,102737.22
2019-02-25T22:33:39.291Z,102748.36
2019-02-25T22:36:08.752Z,102742.58
2019-02-25T22:38:38.272Z,102739.38
2019-02-25T22:41:07.735Z,102740.78
2019-02-25T22:43:39.049Z,102736.22
2019-02-25T22:46:11.128Z,102736.23
2019-02-25T22:48:42.021Z,102736.23
2019-02-25T22:51:10.695Z,102727.34
2019-02-25T22:53:40.197Z,102730.77
2019-02-25T22:56:13.397Z,102723.70
2019-02-25T22:58:42.886Z,102726.63
2019-02-25T23:01:17.052Z,102725.58
2019-02-25T23:03:45.587Z,102726.41
2019-02-25T23:06:15.863Z,102716.69
2019-02-25T23:08:48.317Z,102711.73
2019-02-25T23:11:19.818Z,102717.81
2019-02-25T23:13:50.304Z,102711.55
2019-02-25T23:16:22.738Z,102713.69
2019-02-25T23:18:51.590Z,102715.00
2019-02-25T23:21:24.209Z,102702.27
2019-02-25T23:23:55.565Z,102699.73
2019-02-25T23:26:23.515Z,102696.71
2019-02-25T23:28:55.036Z,102697.93
2019-02-25T23:31:24.072Z,102694.48
2019-02-25T23:33:53.767Z,102698.94
2019-02-25T23:36:24.600Z,102698.42
2019-02-25T23:38:54.968Z,102701.87
2019-02-25T23:41:25.524Z,102708.92
2019-02-25T23:43:54.933Z,102714.17
2019-02-25T23:46:27.289Z,102724.67
2019-02-25T23:48:55.502Z,102727.20
2019-02-25T23:51:24.979Z,102741.25
2019-02-25T23:53:55.900Z,102742.77
2019-02-25T23:56:27.412Z,102746.20
2019-02-25T23:58:56.767Z,102740.38
